createdAt,value
2022-09-28T01:22:57.345Z,9.21
2022-09-28T01:25:36.271Z,9.21
2022-09-28T01:28:09.165Z,9.47
2022-09-28T01:30:44.502Z,9.54
2022-09-28T01:33:17.780Z,9.41
2022-09-28T01:35:57.319Z,9.53
2022-09-28T01:38:31.142Z,9.65
2022-09-28T01:41:01.185Z,9.59
2022-09-28T01:43:29.522Z,9.25
2022-09-28T01:46:02.033Z,9.33
2022-09-28T01:48:37.969Z,9.31
2022-09-28T01:51:10.507Z,9.34
2022-09-28T01:53:44.876Z,9.46
2022-09-28T01:56:35.661Z,9.80
2022-09-28T01:59:27.196Z,9.58
2022-09-28T02:02:15.800Z,9.52
2022-09-28T02:04:51.885Z,9.61
2022-09-28T02:07:24.070Z,9.66
2022-09-28T02:09:56.233Z,9.30
2022-09-28T02:12:35.509Z,9.66
2022-09-28T02:15:14.631Z,9.69
2022-09-28T02:17:41.759Z,9.13
2022-09-28T02:20:08.971Z,9.57
2022-09-28T02:22:44.016Z,9.68
2022-09-28T02:25:23.145Z,9.85
2022-09-28T02:28:00.660Z,9.70
2022-09-28T02:30:29.516Z,9.28
2022-09-28T02:33:05.862Z,9.53
2022-09-28T02:35:36.552Z,9.46
2022-09-28T02:38:03.305Z,9.36
2022-09-28T02:40:32.592Z,9.70
2022-09-28T02:43:20.217Z,9.50
2022-09-28T02:45:53.072Z,9.73
2022-09-28T02:48:43.643Z,9.53
2022-09-28T02:51:20.183Z,9.49
2022-09-28T02:53:49.697Z,9.55
2022-09-28T02:56:36.907Z,9.61
2022-09-28T02:59:25.419Z,9.64
2022-09-28T03:02:32.322Z,9.58
2022-09-28T03:05:18.842Z,9.45
2022-09-28T03:07:48.850Z,9.17
2022-09-28T03:10:37.301Z,8.89
2022-09-28T03:13:05.251Z,9.07
2022-09-28T03:15:36.321Z,8.74
2022-09-28T03:18:02.957Z,8.63
2022-09-28T03:20:30.909Z,9.03
2022-09-28T03:23:22.732Z,8.50
2022-09-28T03:25:44.177Z,8.36
2022-09-28T03:28:10.911Z,8.33
2022-09-28T03:30:37.369Z,8.98
2022-09-28T03:33:04.419Z,8.68
2022-09-28T03:35:31.157Z,8.55
2022-09-28T03:37:57.855Z,8.72
2022-09-28T03:40:27.197Z,8.52
2022-09-28T03:42:54.306Z,8.45
2022-09-28T03:45:20.873Z,8.03
2022-09-28T03:47:48.694Z,8.61
2022-09-28T03:50:18.284Z,8.41
2022-09-28T03:52:44.866Z,7.96
2022-09-28T03:55:14.710Z,8.26
2022-09-28T03:57:43.600Z,8.50
2022-09-28T04:00:10.947Z,8.67
2022-09-28T04:02:37.535Z,8.25
2022-09-28T04:05:04.989Z,8.39
2022-09-28T04:07:31.537Z,8.30
2022-09-28T04:09:58.358Z,8.48
2022-09-28T04:12:24.970Z,8.63
2022-09-28T04:15:05.625Z,8.74
2022-09-28T04:17:36.512Z,8.33
2022-09-28T04:20:07.290Z,8.59
2022-09-28T04:22:37.510Z,8.52
2022-09-28T04:25:08.033Z,8.25
2022-09-28T04:27:53.151Z,8.22
2022-09-28T04:30:19.754Z,8.35
2022-09-28T04:32:47.628Z,8.72
2022-09-28T04:35:14.662Z,8.78
2022-09-28T04:37:41.569Z,8.64
2022-09-28T04:40:08.745Z,8.61
2022-09-28T04:42:37.029Z,8.77
2022-09-28T04:45:07.557Z,8.41
2022-09-28T04:47:37.033Z,8.58
2022-09-28T04:53:40.304Z,8.60
2022-09-28T04:59:03.263Z,8.65
2022-09-28T05:01:33.075Z,8.74
2022-09-28T05:04:00.000Z,8.59
2022-09-28T05:09:29.750Z,8.18
2022-09-28T05:12:21.614Z,8.12
2022-09-28T05:18:08.017Z,8.25
2022-09-28T05:20:44.285Z,8.18
2022-09-28T05:23:12.593Z,8.21
2022-09-28T05:25:49.684Z,8.18
2022-09-28T05:31:53.467Z,8.13
2022-09-28T05:34:35.823Z,8.17
2022-09-28T05:56:51.236Z,9.04
2022-09-28T06:00:01.087Z,9.04
2022-09-28T06:03:04.411Z,8.97
2022-09-28T11:48:07.331Z,11.59
2022-09-28T11:54:47.900Z,10.52
2022-09-28T11:57:54.371Z,11.15
2022-09-28T12:00:24.945Z,10.89
2022-09-28T12:03:42.163Z,11.09
2022-09-28T12:14:07.263Z,11.01
2022-09-28T12:17:06.004Z,10.88
2022-09-28T12:27:57.079Z,12.29
2022-09-28T12:38:39.044Z,12.53
2022-09-28T12:41:44.222Z,12.50
2022-09-28T12:44:20.890Z,11.54
2022-09-28T12:50:38.652Z,12.10
2022-09-28T12:53:43.235Z,12.56
2022-09-28T12:56:31.622Z,12.46
2022-09-28T12:59:01.136Z,12.71
2022-09-28T13:01:48.672Z,12.94
2022-09-28T13:04:44.448Z,12.90
2022-09-28T13:07:32.468Z,12.84
2022-09-28T13:10:05.218Z,13.17
2022-09-28T13:20:33.060Z,13.08
2022-09-28T13:23:17.583Z,12.91
2022-09-28T13:25:55.688Z,12.93
2022-09-28T13:28:27.554Z,12.75
2022-09-28T13:33:33.915Z,12.96
2022-09-28T13:36:00.910Z,12.55
2022-09-28T13:38:27.281Z,12.72
2022-09-28T13:41:06.260Z,13.05
2022-09-28T13:44:17.935Z,12.94
2022-09-28T13:47:12.027Z,13.31
2022-09-28T13:50:05.002Z,13.40
2022-09-28T13:52:39.972Z,13.62
2022-09-28T13:55:33.922Z,13.24
2022-09-28T14:05:46.303Z,13.26
2022-09-28T14:08:31.137Z,13.16
2022-09-28T14:11:48.405Z,12.66
2022-09-28T14:14:40.031Z,13.34
2022-09-28T14:17:21.791Z,13.36
2022-09-28T14:20:11.191Z,13.70
2022-09-28T14:22:51.607Z,13.20
2022-09-28T14:25:27.758Z,12.92
2022-09-28T14:28:19.489Z,12.83
2022-09-28T14:30:56.271Z,12.93
2022-09-28T14:33:28.100Z,13.47
2022-09-28T14:36:08.587Z,12.79
2022-09-28T14:39:07.466Z,13.10
2022-09-28T14:41:37.905Z,13.02
2022-09-28T14:44:10.391Z,12.72
2022-09-28T14:47:21.774Z,12.60
2022-09-28T14:50:00.594Z,11.99
2022-09-28T14:53:06.246Z,12.07
2022-09-28T14:55:40.940Z,12.02
2022-09-28T14:58:23.200Z,12.53
2022-09-28T15:00:56.203Z,12.40
2022-09-28T15:03:24.413Z,12.71
2022-09-28T15:05:51.204Z,13.26
2022-09-28T15:08:20.357Z,13.41
2022-09-28T15:10:55.808Z,13.00
2022-09-28T15:13:33.815Z,12.61
2022-09-28T15:16:23.268Z,13.03
2022-09-28T15:19:07.163Z,13.33
2022-09-28T15:25:36.410Z,13.48
2022-09-28T15:28:25.135Z,12.81
2022-09-28T15:30:58.885Z,12.80
2022-09-28T15:33:53.967Z,12.91
2022-09-28T15:36:41.134Z,12.50
2022-09-28T15:39:15.785Z,12.36
2022-09-28T15:41:56.418Z,12.36
2022-09-28T15:44:36.347Z,12.13
2022-09-28T15:47:14.369Z,12.24
2022-09-28T15:49:56.874Z,12.08
2022-09-28T15:52:26.006Z,12.27
2022-09-28T15:54:54.152Z,11.91
2022-09-28T15:57:39.462Z,11.52
2022-09-28T16:00:28.806Z,11.78
2022-09-28T16:03:09.492Z,11.80
2022-09-28T16:06:08.390Z,11.91
2022-09-28T16:16:01.983Z,11.30
2022-09-28T16:18:30.656Z,11.28
2022-09-28T16:21:20.325Z,11.15
2022-09-28T16:23:52.635Z,10.93
2022-09-28T16:26:44.140Z,11.30
2022-09-28T16:29:35.898Z,10.79
2022-09-28T16:32:29.539Z,10.88
2022-09-28T16:35:42.087Z,11.04
2022-09-28T16:38:16.372Z,10.83
2022-09-28T16:41:02.904Z,10.72
2022-09-28T16:43:31.221Z,10.82
2022-09-28T16:46:18.221Z,10.91
2022-09-28T16:48:50.764Z,10.47
2022-09-28T16:51:24.217Z,10.25
2022-09-28T16:54:09.430Z,10.39
2022-09-28T16:57:04.732Z,10.60
2022-09-28T16:59:31.934Z,10.31
2022-09-28T17:01:59.178Z,10.79
2022-09-28T17:04:47.533Z,10.89
2022-09-28T17:07:15.394Z,10.53
2022-09-28T17:09:53.255Z,10.16
2022-09-28T17:12:23.092Z,10.00
2022-09-28T17:15:27.019Z,10.24
2022-09-28T21:28:00.276Z,9.55
2022-09-28T21:35:19.893Z,9.81
2022-09-28T21:37:46.739Z,9.73
2022-09-28T21:40:13.232Z,9.91
2022-09-28T21:42:43.214Z,9.36
2022-09-28T21:45:12.429Z,9.64
2022-09-28T21:47:50.263Z,9.70
2022-09-28T21:50:16.942Z,9.62
2022-09-28T21:52:43.662Z,9.45
2022-09-28T21:55:10.410Z,9.38
2022-09-28T21:57:36.938Z,9.68
2022-09-28T22:00:04.120Z,9.26
2022-09-28T22:02:37.281Z,9.37
2022-09-28T22:05:06.103Z,9.40
2022-09-28T22:07:40.420Z,9.43
2022-09-28T22:10:08.948Z,9.50
2022-09-28T22:12:41.156Z,9.48
2022-09-28T22:15:18.770Z,9.66
2022-09-28T22:17:45.609Z,9.71
2022-09-28T22:20:12.111Z,9.98
2022-09-28T22:22:38.747Z,9.07
2022-09-28T22:25:08.972Z,9.32
2022-09-28T22:27:35.474Z,9.56
2022-09-28T22:30:04.263Z,9.48
2022-09-28T22:32:30.771Z,9.88
2022-09-28T22:34:57.640Z,9.31
2022-09-28T22:37:28.119Z,9.37
2022-09-28T22:39:55.553Z,9.21
2022-09-28T22:42:22.090Z,9.52
2022-09-28T22:44:49.132Z,9.62
2022-09-28T22:47:19.968Z,9.48
2022-09-28T22:49:49.168Z,9.62
2022-09-28T22:52:16.331Z,9.25
2022-09-28T22:54:43.196Z,9.36
2022-09-28T22:57:10.260Z,9.39
2022-09-28T22:59:42.570Z,9.54
2022-09-28T23:02:09.657Z,9.64
2022-09-28T23:04:36.550Z,9.64
2022-09-28T23:07:03.745Z,9.49
2022-09-28T23:09:39.843Z,9.81
2022-09-28T23:12:09.204Z,9.70
2022-09-28T23:14:38.795Z,9.28
2022-09-28T23:17:05.791Z,9.57
2022-09-28T23:19:33.823Z,9.86
2022-09-28T23:22:00.639Z,9.46
2022-09-28T23:24:27.271Z,9.73
2022-09-28T23:26:58.988Z,9.46
2022-09-28T23:29:28.402Z,9.56
2022-09-28T23:32:00.738Z,9.19
2022-09-28T23:34:33.017Z,9.22
2022-09-28T23:37:03.557Z,9.28
2022-09-28T23:39:30.678Z,9.66
2022-09-28T23:42:00.417Z,9.05
2022-09-28T23:44:33.486Z,9.54
2022-09-28T23:47:03.756Z,9.20
2022-09-28T23:49:30.683Z,9.38
2022-09-28T23:52:02.892Z,9.40
2022-09-28T23:54:29.779Z,9.35
2022-09-28T23:56:58.384Z,9.46
2022-09-28T23:59:25.063Z,9.40
